Cambria, CA (93428)

9:44 PM PDT on August 30, 2016 (GMT -0700)
Lodge Hill | | Change Station

Elev 250 ft 35.55 °N, 121.07 °W | Updated 391 days ago

Clear
Clear
60 °F
Feels Like 60 °F
N
8
Wind Variable Wind from NNW
Gusts mph

Today
High -- | Low -- °F
--% Chance of Precip.
Yesterday
High -- | Low -- °F
Precip. -- in
Pressure 29.87 in
Visibility 10.0 miles
Clouds Clear
Dew Point 53 °F
Humidity 76%
Rainfall in
Snow Depth Not available.
6:35 AM 7:33 PM
Waning Crescent, 1% visible
METAR KPRB 310353Z AUTO 29014G32KT 10SM CLR 24/09 A2989 RMK AO2 PK WND 28032/0347 SLP113 T02390094 TSNO
Pressure 29.87 in
Visibility 10.0 miles
Clouds Clear
Dew Point 53 °F
Humidity 76%
Rainfall in
Snow Depth Not available.
6:35 AM 7:33 PM
Waning Crescent, 1% visible
METAR KPRB 310353Z AUTO 29014G32KT 10SM CLR 24/09 A2989 RMK AO2 PK WND 28032/0347 SLP113 T02390094 TSNO

10-Day Weather Forecast

Almanac

Astronomy

Aug. 30, 2016 Rise Set
Actual Time
Civil Twilight
Nautical Twilight
Astronomical Twilight
Moon
Length of Visible Light
Length of Day
Tomorrow will be .
, % of the Moon is Illuminated

Today's Extremes

State Highs State Lows

Community

WunderPhotos

Upload Photos

1,936,039 photos uploaded!

WunderBlog® & News

Nearby

Air Quality

  Air Quality AQ Index Pollutant
Not available.

Snow Depth

Station Depth Elevation

Earthquake Activity

City Distance Mag. Time & Date
Minimum magnitude displayed is 2.5.

Coastal Water Temperatures

Place Temperature

Stations

Nearby Weather Stations

Station Location Temp. Windchill Dew Point Humidity Wind Precip. Elev Updated Type
                   

Watches & Warnings

There are currently no watches in effect.